Time;durP1;ratioP1;P1;durP2;ratioP2;P2;SDS_P1;SDS_P2;PMS_P1;PMS_P2;Temp;Humidity;BMP_temperature;BMP_pressure;BME280_temperature;BME280_humidity;BME280_pressure;Samples;Min_cycle;Max_cycle;Signal;HPM_P1;HPM_P2
2020/12/30 00:00:24;118066696.00;393.56;66667996.00;0.00;0.00;0.62;;;;;25.30;37.50;;;;;;2250359;61;7647;-68
2020/12/30 00:02:51;261932.00;0.87;452.47;86088.00;0.29;149.55;;;;;25.30;37.50;;;;;;2232452;61;8159;-66
2020/12/30 00:05:17;326795.00;1.09;563.98;37617.00;0.13;65.77;;;;;25.30;37.60;;;;;;2246074;61;8196;-66
2020/12/30 00:07:44;291722.00;0.97;503.69;34137.00;0.11;59.74;;;;;25.40;37.50;;;;;;2250534;61;7761;-67
2020/12/30 00:10:12;167615.00;0.56;290.16;18521.00;0.06;32.71;;;;;25.30;37.40;;;;;;2247556;61;5750;-66
2020/12/30 00:12:39;211045.00;0.70;364.93;0.00;0.00;0.62;;;;;25.40;37.40;;;;;;2249675;61;8180;-66
2020/12/30 00:15:07;263409.00;0.88;455.01;31897.00;0.11;55.87;;;;;25.30;37.40;;;;;;2253360;61;7458;-66
2020/12/30 00:17:38;200132.00;0.67;346.15;6657.00;0.02;12.16;;;;;25.30;37.40;;;;;;2249852;61;7655;-68
2020/12/30 00:20:05;110083.00;0.37;190.97;0.00;0.00;0.62;;;;;25.30;37.30;;;;;;2254229;61;7510;-68
2020/12/30 00:22:31;153155.00;0.51;265.24;0.00;0.00;0.62;;;;;25.20;37.20;;;;;;2252953;61;8327;-67
2020/12/30 00:24:58;212226.00;0.71;366.97;0.00;0.00;0.62;;;;;25.30;37.30;;;;;;2250191;61;7869;-68
2020/12/30 00:27:24;212670.00;0.71;367.73;0.00;0.00;0.62;;;;;25.20;37.30;;;;;;2246435;61;8148;-68
2020/12/30 00:29:50;164359.00;0.55;284.55;1561.00;0.01;3.33;;;;;25.20;37.30;;;;;;2249659;61;8330;-67
2020/12/30 00:32:17;52745.00;0.18;91.93;0.00;0.00;0.62;;;;;25.10;37.30;;;;;;2250549;61;7959;-68
2020/12/30 00:34:45;90493.00;0.30;157.16;0.00;0.00;0.62;;;;;25.10;37.40;;;;;;2245454;61;7722;-68
2020/12/30 00:37:11;54627.00;0.18;95.19;0.00;0.00;0.62;;;;;25.10;37.40;;;;;;2253484;61;8014;-67
2020/12/30 00:39:39;0.00;0.00;0.62;0.00;0.00;0.62;;;;;25.00;37.40;;;;;;2248995;61;4512;-66
2020/12/30 00:42:08;154725.00;0.52;267.95;0.00;0.00;0.62;;;;;24.90;37.40;;;;;;2250681;61;8256;-67
2020/12/30 00:44:35;64147.00;0.21;111.65;0.00;0.00;0.62;;;;;24.90;37.60;;;;;;2245635;61;7899;-67
2020/12/30 00:47:01;0.00;0.00;0.62;0.00;0.00;0.62;;;;;24.80;37.50;;;;;;2250515;61;6205;-66
2020/12/30 00:49:28;14479.00;0.05;25.71;0.00;0.00;0.62;;;;;24.80;37.60;;;;;;2245221;61;5845;-67
2020/12/30 00:51:56;399404.00;1.33;688.78;222186.00;0.74;384.10;;;;;24.80;37.60;;;;;;2243265;61;8072;-67
2020/12/30 00:54:23;76189.00;0.25;132.45;0.00;0.00;0.62;;;;;24.80;37.70;;;;;;2251284;61;7967;-67
2020/12/30 00:56:51;575347.00;1.92;991.67;138405.00;0.46;239.82;;;;;24.70;37.70;;;;;;2245591;61;7740;-66
2020/12/30 00:59:18;191101.00;0.64;330.60;0.00;0.00;0.62;;;;;24.70;37.80;;;;;;2248018;61;8112;-67
2020/12/30 01:01:50;60342.00;0.20;105.07;0.00;0.00;0.62;;;;;24.70;37.80;;;;;;2251321;61;7388;-67
2020/12/30 01:04:18;291538.00;0.97;503.37;0.00;0.00;0.62;;;;;24.60;37.80;;;;;;2247053;61;7641;-67
2020/12/30 01:06:52;21986.00;0.07;38.71;0.00;0.00;0.62;;;;;24.60;37.90;;;;;;2251210;61;7653;-67
2020/12/30 01:09:19;124350.00;0.41;215.59;0.00;0.00;0.62;;;;;24.50;37.90;;;;;;2246772;61;7144;-67
2020/12/30 01:11:46;162451.00;0.54;281.26;0.00;0.00;0.62;;;;;24.50;38.00;;;;;;2253647;61;7264;-66
2020/12/30 01:14:12;151867.00;0.51;263.03;33131.00;0.11;58.00;;;;;24.50;38.00;;;;;;2248766;61;7537;-66
2020/12/30 01:16:39;0.00;0.00;0.62;0.00;0.00;0.62;;;;;24.40;38.00;;;;;;2247747;61;7599;-66
2020/12/30 01:19:06;0.00;0.00;0.62;0.00;0.00;0.62;;;;;24.30;38.00;;;;;;2249626;61;7470;-66
2020/12/30 01:21:43;0.00;0.00;0.62;0.00;0.00;0.62;;;;;24.30;38.10;;;;;;2247302;61;7628;-66
2020/12/30 01:24:09;292812.00;0.98;505.56;9989.00;0.03;17.93;;;;;24.30;38.20;;;;;;2250243;61;7207;-67
2020/12/30 01:26:37;175760.00;0.59;304.19;0.00;0.00;0.62;;;;;24.30;38.20;;;;;;2250485;61;7385;-66
2020/12/30 01:29:04;185994.00;0.62;321.81;6659.00;0.02;12.16;;;;;24.20;38.20;;;;;;2246760;61;7743;-67
2020/12/30 01:31:31;171322.00;0.57;296.54;22068.00;0.07;38.85;;;;;24.20;38.20;;;;;;2246957;61;7702;-67
2020/12/30 01:33:59;162283.00;0.54;280.97;0.00;0.00;0.62;;;;;24.20;38.20;;;;;;2250925;61;5937;-66
2020/12/30 01:36:26;249250.00;0.83;430.66;30763.00;0.10;53.90;;;;;24.20;38.30;;;;;;2250398;61;7457;-67
2020/12/30 01:38:53;261066.00;0.87;450.98;12216.00;0.04;21.79;;;;;24.20;38.30;;;;;;2247458;61;7249;-66
2020/12/30 01:41:20;65691.00;0.22;114.31;0.00;0.00;0.62;;;;;24.20;38.30;;;;;;2247102;61;7655;-66
2020/12/30 01:44:06;0.00;0.00;0.62;0.00;0.00;0.62;;;;;24.20;38.30;;;;;;2253457;61;7643;-67
2020/12/30 01:46:46;213929.00;0.71;369.90;6712.00;0.02;12.25;;;;;24.20;38.30;;;;;;2252420;61;7605;-66
2020/12/30 01:49:12;118122.00;0.39;204.84;0.00;0.00;0.62;;;;;24.10;38.30;;;;;;2248681;61;7617;-66
2020/12/30 01:51:41;204652.00;0.68;353.93;41904.00;0.14;73.18;;;;;24.10;38.40;;;;;;2249170;61;5814;-66
2020/12/30 01:54:12;190446.00;0.63;329.48;0.00;0.00;0.62;;;;;24.10;38.40;;;;;;2251409;61;7883;-67
2020/12/30 01:56:40;9307.00;0.03;16.75;0.00;0.00;0.62;;;;;24.00;38.40;;;;;;2249747;61;7630;-65
2020/12/30 01:59:09;67281.00;0.22;117.06;0.00;0.00;0.62;;;;;24.00;38.40;;;;;;2248705;61;7580;-67
2020/12/30 02:04:12;1335492.00;4.45;2337.21;45023.00;0.15;78.58;;;;;24.00;38.50;;;;;;2257658;61;1634;-73
2020/12/30 02:06:41;53481.00;0.18;93.21;0.00;0.00;0.62;;;;;24.00;38.50;;;;;;2255805;61;1258;-73
2020/12/30 02:09:08;221247.00;0.74;382.49;0.00;0.00;0.62;;;;;24.00;38.60;;;;;;2253204;61;1955;-73
2020/12/30 02:11:34;70959.00;0.24;123.42;0.00;0.00;0.62;;;;;23.90;38.50;;;;;;2255519;61;2032;-73
2020/12/30 02:14:07;59296.00;0.20;103.26;0.00;0.00;0.62;;;;;23.90;38.60;;;;;;2255148;61;1669;-73
2020/12/30 02:16:54;48823.00;0.16;85.15;0.00;0.00;0.62;;;;;23.90;38.60;;;;;;2252370;61;1816;-73
2020/12/30 02:19:27;0.00;0.00;0.62;0.00;0.00;0.62;;;;;23.90;38.70;;;;;;2256380;61;1659;-72
2020/12/30 02:22:04;134470.00;0.45;233.04;29343.00;0.10;51.45;;;;;23.90;39.30;;;;;;2252186;61;1544;-73
2020/12/30 02:24:32;205016.00;0.68;354.56;0.00;0.00;0.62;;;;;23.80;38.70;;;;;;2252119;61;2059;-72
2020/12/30 02:27:01;176396.00;0.59;305.28;3667.00;0.01;6.98;;;;;23.80;38.70;;;;;;2252028;61;1737;-72
2020/12/30 02:29:28;377077.00;1.26;650.40;37947.00;0.13;66.34;;;;;23.80;38.80;;;;;;2252211;61;2038;-72
2020/12/30 02:31:55;177769.00;0.59;307.65;90.00;0.00;0.78;;;;;23.80;38.80;;;;;;2252155;61;1620;-72
2020/12/30 02:34:21;75880.00;0.25;131.92;75.00;0.00;0.75;;;;;23.80;38.80;;;;;;2248741;61;1564;-72
2020/12/30 02:36:48;0.00;0.00;0.62;0.00;0.00;0.62;;;;;23.80;38.90;;;;;;2252204;61;1685;-72
2020/12/30 02:39:15;26977.00;0.09;47.35;0.00;0.00;0.62;;;;;23.80;38.90;;;;;;2255218;61;1517;-72
2020/12/30 02:41:42;6672.00;0.02;12.18;0.00;0.00;0.62;;;;;23.70;38.80;;;;;;2255480;61;2035;-72
2020/12/30 02:44:08;94341.00;0.31;163.80;0.00;0.00;0.62;;;;;23.70;39.40;;;;;;2251933;61;1632;-72
2020/12/30 02:46:34;155245.00;0.52;268.85;10408.00;0.03;18.66;;;;;23.70;38.90;;;;;;2252172;61;2162;-73
2020/12/30 02:49:00;177871.00;0.59;307.82;12763.00;0.04;22.74;;;;;23.70;38.90;;;;;;2252068;61;1928;-72
2020/12/30 02:51:27;183343.00;0.61;317.25;0.00;0.00;0.62;;;;;23.70;38.90;;;;;;2250993;61;11358;-72
2020/12/30 02:53:53;313973.00;1.05;541.94;15290.00;0.05;27.11;;;;;23.70;39.00;;;;;;2242118;61;7881;-72
2020/12/30 02:56:20;206710.00;0.69;357.47;24919.00;0.08;43.79;;;;;23.70;39.00;;;;;;2243162;61;7497;-72
2020/12/30 02:58:47;257118.00;0.86;444.19;43127.00;0.14;75.30;;;;;23.60;38.90;;;;;;2244963;61;7805;-72
2020/12/30 03:01:14;122645.00;0.41;212.64;0.00;0.00;0.62;;;;;23.70;38.90;;;;;;2243481;61;7690;-72
2020/12/30 03:03:41;158276.00;0.53;274.07;0.00;0.00;0.62;;;;;23.60;39.00;;;;;;2251605;61;6107;-72
2020/12/30 03:06:09;492068.00;1.64;848.17;47822.00;0.16;83.42;;;;;23.60;38.90;;;;;;2236598;61;7466;-73
2020/12/30 03:08:36;315751.00;1.05;544.99;21192.00;0.07;37.33;;;;;23.60;38.90;;;;;;2241927;61;9023;-73
2020/12/30 03:11:09;116525.00;0.39;202.09;0.00;0.00;0.62;;;;;23.60;39.00;;;;;;2246160;61;10883;-73
2020/12/30 03:13:36;218846.00;0.73;378.36;0.00;0.00;0.62;;;;;23.60;39.00;;;;;;2247875;61;7427;-73
2020/12/30 03:16:02;624484.00;2.08;1076.52;33367.00;0.11;58.41;;;;;23.60;38.90;;;;;;2243281;61;7674;-73
2020/12/30 03:18:28;183395.00;0.61;317.34;0.00;0.00;0.62;;;;;23.60;39.00;;;;;;2239205;61;7724;-72
2020/12/30 03:20:55;167815.00;0.56;290.50;24766.00;0.08;43.52;;;;;23.60;39.00;;;;;;2243138;61;7477;-73
2020/12/30 03:23:21;208243.00;0.69;360.11;27309.00;0.09;47.92;;;;;23.60;39.00;;;;;;2241821;61;7346;-74
2020/12/30 03:25:47;148253.00;0.49;256.80;4215.00;0.01;7.93;;;;;23.60;39.00;;;;;;2239925;61;7675;-74
2020/12/30 03:28:14;355652.00;1.19;613.58;20390.00;0.07;35.95;;;;;23.60;39.00;;;;;;2242500;61;7692;-74
2020/12/30 03:30:41;174695.00;0.58;302.35;0.00;0.00;0.62;;;;;23.60;39.00;;;;;;2243853;61;7352;-74
2020/12/30 03:33:07;278979.00;0.93;481.78;17400.00;0.06;30.77;;;;;23.60;39.00;;;;;;2246058;61;7679;-74
2020/12/30 03:35:34;147746.00;0.49;255.92;8536.00;0.03;15.41;;;;;23.60;39.00;;;;;;2243380;61;7584;-74
2020/12/30 03:38:04;124127.00;0.41;215.20;0.00;0.00;0.62;;;;;23.60;39.60;;;;;;2242843;61;7531;-74
2020/12/30 03:41:24;301117.00;1.00;519.84;0.00;0.00;0.62;;;;;23.50;39.40;;;;;;2265451;60;4001;-71
2020/12/30 03:43:50;265646.00;0.89;458.86;0.00;0.00;0.62;;;;;23.60;39.00;;;;;;2253941;61;4319;-70
2020/12/30 03:46:16;349123.00;1.16;602.35;0.00;0.00;0.62;;;;;23.60;39.00;;;;;;2254026;61;4177;-70
2020/12/30 03:48:43;344429.00;1.15;594.29;0.00;0.00;0.62;;;;;23.50;38.90;;;;;;2257051;61;5904;-70
2020/12/30 03:51:09;396304.00;1.32;683.45;0.00;0.00;0.62;;;;;23.50;38.90;;;;;;2249738;61;4110;-70
2020/12/30 03:53:35;226572.00;0.76;391.65;0.00;0.00;0.62;;;;;23.50;38.90;;;;;;2258173;61;4404;-70
2020/12/30 03:56:01;369461.00;1.23;637.31;20767.00;0.07;36.60;;;;;23.50;38.90;;;;;;2254321;61;4086;-70
2020/12/30 03:58:28;228557.00;0.76;395.07;0.00;0.00;0.62;;;;;23.50;38.80;;;;;;2256666;61;4183;-70
2020/12/30 04:00:54;314055.00;1.05;542.08;0.00;0.00;0.62;;;;;23.50;39.00;;;;;;2253123;61;6650;-71
2020/12/30 04:03:20;424589.00;1.42;732.08;0.00;0.00;0.62;;;;;23.50;39.00;;;;;;2253664;61;4137;-70
2020/12/30 04:05:51;379476.00;1.26;654.52;0.00;0.00;0.62;;;;;23.50;39.00;;;;;;2253573;61;5671;-70
2020/12/30 04:08:21;314204.00;1.05;542.34;0.00;0.00;0.62;;;;;23.50;39.00;;;;;;2249946;61;4481;-71
2020/12/30 04:10:51;428403.00;1.43;738.64;0.00;0.00;0.62;;;;;23.40;39.00;;;;;;2252795;61;5745;-71
2020/12/30 04:13:17;250394.00;0.83;432.63;0.00;0.00;0.62;;;;;23.50;39.00;;;;;;2250399;61;4146;-69
2020/12/30 04:15:47;370327.00;1.23;638.80;0.00;0.00;0.62;;;;;23.50;39.10;;;;;;2250997;61;3851;-70
2020/12/30 04:18:13;477418.00;1.59;822.95;0.00;0.00;0.62;;;;;23.50;39.00;;;;;;2253121;61;4154;-70
2020/12/30 04:20:40;210052.00;0.70;363.22;0.00;0.00;0.62;;;;;23.40;38.90;;;;;;2250776;61;4184;-70
2020/12/30 04:23:06;399651.00;1.33;689.21;9520.00;0.03;17.12;;;;;23.40;39.00;;;;;;2253170;61;3890;-71
2020/12/30 04:25:33;234782.00;0.78;405.78;0.00;0.00;0.62;;;;;23.40;39.00;;;;;;2250734;61;4319;-70
2020/12/30 04:27:59;334198.00;1.11;576.70;0.00;0.00;0.62;;;;;23.40;39.00;;;;;;2253353;61;5777;-70
2020/12/30 04:30:25;386003.00;1.29;665.74;24224.00;0.08;42.58;;;;;23.40;39.00;;;;;;2246448;61;4566;-70
2020/12/30 04:32:52;279833.00;0.93;483.25;0.00;0.00;0.62;;;;;23.40;38.90;;;;;;2253441;61;4219;-70
2020/12/30 04:35:18;340007.00;1.13;586.69;0.00;0.00;0.62;;;;;23.40;39.00;;;;;;2251225;61;4230;-71
2020/12/30 04:37:45;398619.00;1.33;687.43;5423.00;0.02;10.02;;;;;23.40;39.00;;;;;;2251268;61;4105;-70
2020/12/30 04:40:11;265501.00;0.89;458.61;0.00;0.00;0.62;;;;;23.40;39.00;;;;;;2251906;61;4208;-70
2020/12/30 04:42:43;455318.00;1.52;784.93;0.00;0.00;0.62;;;;;23.40;39.00;;;;;;2257285;61;4494;-70
2020/12/30 04:45:10;365988.00;1.22;631.34;0.00;0.00;0.62;;;;;23.40;39.00;;;;;;2246798;61;3980;-70
2020/12/30 04:47:40;271666.00;0.91;469.21;0.00;0.00;0.62;;;;;23.40;39.10;;;;;;2253787;61;5717;-70
2020/12/30 04:50:07;381556.00;1.27;658.10;3910.00;0.01;7.40;;;;;23.50;39.10;;;;;;2253842;61;4386;-71
2020/12/30 04:52:35;285469.00;0.95;492.94;0.00;0.00;0.62;;;;;23.60;39.10;;;;;;2244954;61;4342;-71
2020/12/30 04:55:02;231712.00;0.77;400.49;0.00;0.00;0.62;;;;;23.70;39.00;;;;;;2248661;61;4200;-70
2020/12/30 04:57:48;560003.00;1.87;965.21;39830.00;0.13;69.59;;;;;23.80;38.90;;;;;;2250076;61;4092;-70
2020/12/30 05:00:15;333677.00;1.11;575.81;0.00;0.00;0.62;;;;;23.90;38.70;;;;;;2250269;61;4031;-71
2020/12/30 05:02:49;418245.00;1.39;721.17;149.00;0.00;0.88;;;;;24.00;38.70;;;;;;2247319;61;4170;-70
2020/12/30 05:05:17;280947.00;0.94;485.17;0.00;0.00;0.62;;;;;24.10;38.60;;;;;;2250371;61;3969;-71
2020/12/30 05:07:45;311307.00;1.04;537.36;0.00;0.00;0.62;;;;;24.10;38.40;;;;;;2250768;61;3944;-71
2020/12/30 05:10:15;365710.00;1.22;630.86;0.00;0.00;0.62;;;;;24.20;38.40;;;;;;2248645;61;4044;-70
2020/12/30 05:12:42;341731.00;1.14;589.65;0.00;0.00;0.62;;;;;24.20;38.30;;;;;;2246605;61;4019;-69
2020/12/30 05:15:09;347390.00;1.16;599.38;0.00;0.00;0.62;;;;;24.30;38.30;;;;;;2251342;61;5862;-70
2020/12/30 05:17:36;370348.00;1.23;638.83;0.00;0.00;0.62;;;;;24.30;38.20;;;;;;2249548;61;4420;-70
2020/12/30 05:20:08;295041.00;0.98;509.40;0.00;0.00;0.62;;;;;24.30;38.10;;;;;;2247662;61;4370;-70
2020/12/30 05:22:38;178800.00;0.60;309.42;0.00;0.00;0.62;;;;;24.40;38.00;;;;;;2250580;61;4483;-71
2020/12/30 05:25:06;169194.00;0.56;292.88;0.00;0.00;0.62;;;;;24.40;38.00;;;;;;2250477;61;3796;-70
2020/12/30 05:27:33;117953880.00;393.18;66476892.00;0.00;0.00;0.62;;;;;24.40;37.90;;;;;;2247913;61;4119;-70
2020/12/30 05:30:01;257840.00;0.86;445.43;0.00;0.00;0.62;;;;;24.40;37.90;;;;;;2250472;61;5812;-70
2020/12/30 05:32:35;266158.00;0.89;459.74;0.00;0.00;0.62;;;;;24.40;37.90;;;;;;2251514;61;7753;-70
2020/12/30 05:35:02;310167.00;1.03;535.40;0.00;0.00;0.62;;;;;24.40;37.80;;;;;;2250782;61;3961;-70
2020/12/30 05:37:32;234395.00;0.78;405.11;0.00;0.00;0.62;;;;;24.50;37.80;;;;;;2250746;61;4804;-70
2020/12/30 05:39:58;336865.00;1.12;581.29;0.00;0.00;0.62;;;;;24.50;37.80;;;;;;2254221;61;4597;-71
2020/12/30 05:42:28;410422.00;1.37;707.72;0.00;0.00;0.62;;;;;24.50;37.80;;;;;;2254695;61;3923;-70
2020/12/30 05:44:55;465470.00;1.55;802.40;15228.00;0.05;27.01;;;;;24.40;37.70;;;;;;2251700;61;3959;-70
2020/12/30 05:47:26;362462.00;1.21;625.28;0.00;0.00;0.62;;;;;24.40;37.70;;;;;;2253615;61;3930;-70
2020/12/30 05:49:57;426261.00;1.42;734.96;0.00;0.00;0.62;;;;;24.40;37.70;;;;;;2255422;61;4435;-70
2020/12/30 05:52:28;459390.00;1.53;791.94;0.00;0.00;0.62;;;;;24.40;37.70;;;;;;2250652;61;4274;-70
2020/12/30 05:55:00;414650.00;1.38;714.99;0.00;0.00;0.62;;;;;24.40;37.80;;;;;;2253812;61;4314;-70
2020/12/30 05:57:31;416476.00;1.39;718.13;0.00;0.00;0.62;;;;;24.40;37.80;;;;;;2253503;61;4294;-71
2020/12/30 06:00:02;345423.00;1.15;595.99;0.00;0.00;0.62;;;;;24.40;37.90;;;;;;2251789;61;4652;-70
2020/12/30 06:02:30;391078.00;1.30;674.47;0.00;0.00;0.62;;;;;24.30;37.80;;;;;;2254921;61;4115;-70
2020/12/30 06:05:10;343811.00;1.15;593.22;0.00;0.00;0.62;;;;;24.30;37.80;;;;;;2250945;61;4560;-71
2020/12/30 06:07:38;309615.00;1.03;534.45;0.00;0.00;0.62;;;;;24.30;37.80;;;;;;2254097;61;6516;-71
2020/12/30 06:10:07;281822.00;0.94;486.67;0.00;0.00;0.62;;;;;24.20;37.80;;;;;;2254076;61;4045;-70
2020/12/30 06:12:51;230256.00;0.77;397.99;0.00;0.00;0.62;;;;;24.20;37.80;;;;;;2251415;61;4036;-70
2020/12/30 06:15:29;433582.00;1.45;747.55;0.00;0.00;0.62;;;;;24.20;37.90;;;;;;2253604;61;4698;-70
2020/12/30 06:18:07;415888.00;1.39;717.12;28041.00;0.09;49.19;;;;;24.20;37.90;;;;;;2256165;61;4014;-70
2020/12/30 06:20:38;307605.00;1.03;530.99;0.00;0.00;0.62;;;;;24.20;37.90;;;;;;2250871;61;3819;-70
2020/12/30 06:23:06;302462.00;1.01;522.15;0.00;0.00;0.62;;;;;24.20;38.00;;;;;;2255915;61;4096;-70
2020/12/30 06:25:35;304211.00;1.01;525.16;0.00;0.00;0.62;;;;;24.10;38.00;;;;;;2251770;61;4336;-69
2020/12/30 06:28:20;334110.00;1.11;576.55;0.00;0.00;0.62;;;;;24.10;38.10;;;;;;2252472;61;5286;-70
2020/12/30 06:30:48;384356.00;1.28;662.91;11034.00;0.04;19.74;;;;;24.10;38.10;;;;;;2255049;61;4083;-69
2020/12/30 06:33:16;323426.00;1.08;558.19;0.00;0.00;0.62;;;;;24.10;38.10;;;;;;2252606;61;7395;-70
2020/12/30 06:35:43;282064.00;0.94;487.09;0.00;0.00;0.62;;;;;24.10;38.20;;;;;;2248242;61;2362;-69
2020/12/30 06:38:24;473325.00;1.58;815.91;0.00;0.00;0.62;;;;;24.00;38.10;;;;;;2255718;61;3508;-71
2020/12/30 06:41:02;359459.00;1.20;620.12;0.00;0.00;0.62;;;;;24.00;38.10;;;;;;2255136;61;4070;-71
2020/12/30 06:43:43;329348.00;1.10;568.37;0.00;0.00;0.62;;;;;24.00;38.00;;;;;;2255426;61;3866;-71
2020/12/30 06:46:11;324337.00;1.08;559.75;0.00;0.00;0.62;;;;;24.00;38.00;;;;;;2253344;61;3618;-71
2020/12/30 06:48:59;502845.00;1.68;866.72;0.00;0.00;0.62;;;;;24.00;38.00;;;;;;2255559;61;3637;-71
2020/12/30 06:51:35;332623.00;1.11;573.99;0.00;0.00;0.62;;;;;24.00;37.90;;;;;;2256250;61;5723;-71
2020/12/30 06:54:02;331464.00;1.10;572.00;0.00;0.00;0.62;;;;;24.00;37.90;;;;;;2255594;61;2478;-71
2020/12/30 06:56:43;477579.00;1.59;823.23;0.00;0.00;0.62;;;;;24.00;37.90;;;;;;2256094;61;2405;-71
2020/12/30 06:59:10;378097.00;1.26;652.15;3115.00;0.01;6.02;;;;;24.00;37.90;;;;;;2255331;61;2549;-71
2020/12/30 07:01:59;322261.00;1.07;556.18;0.00;0.00;0.62;;;;;24.00;37.90;;;;;;2254872;61;2472;-72
2020/12/30 07:04:35;437693.00;1.46;754.62;0.00;0.00;0.62;;;;;24.00;37.90;;;;;;2254574;61;4023;-72
2020/12/30 07:07:19;342238.00;1.14;590.52;0.00;0.00;0.62;;;;;23.90;37.80;;;;;;2255175;61;4286;-71
2020/12/30 07:09:50;298327.00;0.99;515.04;0.00;0.00;0.62;;;;;23.90;37.80;;;;;;2256394;61;4323;-71
2020/12/30 07:12:16;306045.00;1.02;528.31;0.00;0.00;0.62;;;;;23.90;37.80;;;;;;2249001;61;6455;-72
2020/12/30 07:14:47;353199.00;1.18;609.36;0.00;0.00;0.62;;;;;23.90;37.90;;;;;;2254968;61;6043;-72
2020/12/30 07:17:21;111729.00;0.37;193.81;0.00;0.00;0.62;;;;;23.90;38.00;;;;;;2255366;61;6066;-72
2020/12/30 07:19:48;325183.00;1.08;561.21;0.00;0.00;0.62;;;;;23.90;38.10;;;;;;2254671;61;4353;-72
2020/12/30 07:22:15;394367.00;1.31;680.12;0.00;0.00;0.62;;;;;23.90;38.70;;;;;;2252473;61;4085;-72
2020/12/30 07:24:55;326381.00;1.09;563.27;0.00;0.00;0.62;;;;;24.00;38.10;;;;;;2258671;61;4264;-72
2020/12/30 07:27:27;293014.00;0.98;505.91;0.00;0.00;0.62;;;;;24.10;38.00;;;;;;2253332;61;4195;-72
2020/12/30 07:29:57;255309.00;0.85;441.08;0.00;0.00;0.62;;;;;24.20;38.00;;;;;;2254937;61;4359;-72
2020/12/30 07:32:24;442993.00;1.48;763.73;15140.00;0.05;26.85;;;;;24.30;37.90;;;;;;2253715;61;6096;-72
2020/12/30 07:34:52;288904.00;0.96;498.85;0.00;0.00;0.62;;;;;24.30;37.90;;;;;;2247093;61;5633;-72
2020/12/30 07:37:19;373567.00;1.25;644.37;0.00;0.00;0.62;;;;;24.50;37.80;;;;;;2256203;61;4267;-72
2020/12/30 07:39:48;328875.00;1.10;567.55;0.00;0.00;0.62;;;;;24.50;37.60;;;;;;2254044;61;5965;-72
2020/12/30 07:42:24;388990.00;1.30;670.88;244.00;0.00;1.04;;;;;24.60;37.60;;;;;;2254657;61;4578;-72
2020/12/30 07:44:53;418760.00;1.40;722.06;0.00;0.00;0.62;;;;;24.70;37.50;;;;;;2253371;61;6279;-72
2020/12/30 07:47:21;505234.00;1.68;870.84;22782.00;0.08;40.09;;;;;24.70;37.40;;;;;;2254038;61;4349;-72
2020/12/30 07:49:48;276767.00;0.92;477.98;0.00;0.00;0.62;;;;;24.70;37.90;;;;;;2254731;61;5622;-72
2020/12/30 07:52:15;417558.00;1.39;719.99;39038.00;0.13;68.22;;;;;24.80;37.40;;;;;;2249204;61;5366;-72
2020/12/30 07:54:41;442583.00;1.48;763.03;0.00;0.00;0.62;;;;;24.80;37.20;;;;;;2254406;61;6044;-72
2020/12/30 07:57:12;498911.00;1.66;859.95;27820.00;0.09;48.81;;;;;24.90;37.10;;;;;;2254347;61;4479;-72
2020/12/30 07:59:41;451663.00;1.51;778.64;0.00;0.00;0.62;;;;;24.90;36.90;;;;;;2254700;61;4147;-72
2020/12/30 08:02:12;528584.00;1.76;911.05;31706.00;0.11;55.54;;;;;25.00;36.90;;;;;;2254160;61;4471;-72
2020/12/30 08:04:40;386675.00;1.29;666.90;0.00;0.00;0.62;;;;;25.00;36.80;;;;;;2253629;61;5897;-72
2020/12/30 08:07:08;421197.00;1.40;726.25;0.00;0.00;0.62;;;;;25.00;36.70;;;;;;2249170;61;3970;-72
2020/12/30 08:09:40;570494.00;1.90;983.30;33339.00;0.11;58.36;;;;;25.10;36.80;;;;;;2254998;61;5635;-72
2020/12/30 08:12:08;544925.00;1.82;939.21;36021.00;0.12;63.00;;;;;25.10;36.70;;;;;;2256135;61;3891;-72
2020/12/30 08:14:39;608765.00;2.03;1049.36;0.00;0.00;0.62;;;;;25.10;36.60;;;;;;2250850;61;4377;-72
2020/12/30 08:17:08;251190.00;0.84;434.00;0.00;0.00;0.62;;;;;25.00;36.60;;;;;;2255052;61;6049;-72
2020/12/30 08:19:49;435453.00;1.45;750.76;0.00;0.00;0.62;;;;;25.10;36.70;;;;;;2250921;61;4203;-72
2020/12/30 08:22:20;599713.00;2.00;1033.72;40469.00;0.13;70.70;;;;;25.10;36.70;;;;;;2255087;61;4554;-72
2020/12/30 08:24:52;508049.00;1.69;875.68;0.00;0.00;0.62;;;;;25.00;36.60;;;;;;2251396;61;3951;-71
2020/12/30 08:27:23;602202.00;2.01;1038.02;36265.00;0.12;63.43;;;;;25.00;36.70;;;;;;2253493;61;5339;-72
2020/12/30 08:30:00;611576.00;2.04;1054.21;17575.00;0.06;31.07;;;;;25.10;36.60;;;;;;2251931;61;5849;-71
2020/12/30 08:32:32;580643.00;1.94;1000.81;0.00;0.00;0.62;;;;;25.00;36.60;;;;;;2255074;61;4704;-71
2020/12/30 08:35:12;607157.00;2.02;1046.58;0.00;0.00;0.62;;;;;25.10;36.60;;;;;;2255448;61;4808;-72
2020/12/30 08:37:50;620797.00;2.07;1070.14;0.00;0.00;0.62;;;;;25.10;36.70;;;;;;2254966;61;4712;-72
2020/12/30 08:40:30;530524.00;1.77;914.39;45123.00;0.15;78.75;;;;;25.10;36.50;;;;;;2254723;61;4599;-70
2020/12/30 08:43:11;532131.00;1.77;917.16;38146.00;0.13;66.68;;;;;25.10;36.50;;;;;;2257288;61;4540;-70
2020/12/30 08:45:49;497898.00;1.66;858.20;4720.00;0.02;8.80;;;;;25.20;36.50;;;;;;2255774;61;4304;-70
2020/12/30 08:48:19;129015056.00;430.05;87009176.00;3098.00;0.01;5.99;;;;;25.30;36.40;;;;;;2256593;61;6258;-70
2020/12/30 08:50:46;456765.00;1.52;787.42;0.00;0.00;0.62;;;;;25.40;36.40;;;;;;2256051;61;5158;-70
2020/12/30 08:53:13;552400.00;1.84;952.10;0.00;0.00;0.62;;;;;25.40;36.00;;;;;;2256035;61;3883;-70
2020/12/30 08:55:40;442124.00;1.47;762.24;33582.00;0.11;58.78;;;;;25.50;36.00;;;;;;2252797;61;6089;-70
2020/12/30 08:58:07;569799.00;1.90;982.10;20906.00;0.07;36.84;;;;;25.50;35.80;;;;;;2255034;61;6003;-70
2020/12/30 09:00:38;294432.00;0.98;508.35;0.00;0.00;0.62;;;;;25.50;35.70;;;;;;2256409;61;6025;-70
2020/12/30 09:03:15;237098.00;0.79;409.76;0.00;0.00;0.62;;;;;25.60;35.70;;;;;;2257389;61;3538;-70
2020/12/30 09:05:54;347554.00;1.16;599.66;0.00;0.00;0.62;;;;;25.60;35.70;;;;;;2252657;61;4418;-70
2020/12/30 09:08:24;320890.00;1.07;553.83;10178.00;0.03;18.26;;;;;25.60;35.70;;;;;;2257271;61;3561;-70
2020/12/30 09:10:51;229015.00;0.76;395.85;0.00;0.00;0.62;;;;;25.60;35.70;;;;;;2256690;61;4277;-70
2020/12/30 09:13:29;355393.00;1.18;613.13;0.00;0.00;0.62;;;;;25.60;35.70;;;;;;2249406;61;3887;-68
2020/12/30 09:16:04;293581.00;0.98;506.89;0.00;0.00;0.62;;;;;25.70;37.10;;;;;;2256245;61;2744;-71
2020/12/30 09:18:31;307625.00;1.03;531.03;3922.00;0.01;7.42;;;;;25.70;36.00;;;;;;2256106;61;4289;-71
2020/12/30 09:20:57;264483.00;0.88;456.86;0.00;0.00;0.62;;;;;25.70;36.00;;;;;;2252299;61;3864;-71
2020/12/30 09:23:25;449682.00;1.50;775.24;3954.00;0.01;7.47;;;;;25.80;35.90;;;;;;2255808;61;4165;-71
2020/12/30 09:25:52;416314.00;1.39;717.85;20781.00;0.07;36.62;;;;;25.80;35.80;;;;;;2255494;61;2786;-71
2020/12/30 09:28:20;784729.00;2.62;1354.50;6080.00;0.02;11.16;;;;;25.90;35.70;;;;;;2255671;61;6397;-71
2020/12/30 09:30:49;513187.00;1.71;884.53;0.00;0.00;0.62;;;;;26.00;35.70;;;;;;2256457;61;4469;-71
2020/12/30 09:33:22;391045.00;1.30;674.41;37718.00;0.13;65.94;;;;;26.00;35.60;;;;;;2256848;61;4115;-71
2020/12/30 09:35:48;308669.00;1.03;532.82;0.00;0.00;0.62;;;;;26.10;35.50;;;;;;2256595;61;3825;-71
2020/12/30 09:38:23;435407.00;1.45;750.68;5459.00;0.02;10.08;;;;;26.20;35.50;;;;;;2255937;61;3984;-71
2020/12/30 09:40:55;439065.00;1.46;756.97;0.00;0.00;0.62;;;;;26.20;35.40;;;;;;2256001;61;3119;-71
2020/12/30 09:43:24;472029.00;1.57;813.68;19008.00;0.06;33.55;;;;;26.30;35.40;;;;;;2253553;61;2532;-71
2020/12/30 09:45:57;265910.00;0.89;459.31;0.00;0.00;0.62;;;;;26.30;35.40;;;;;;2253701;61;4080;-71
2020/12/30 09:48:23;406083.00;1.35;700.26;7333.00;0.02;13.33;;;;;26.40;35.30;;;;;;2258560;61;4347;-71
2020/12/30 09:50:52;280542.00;0.94;484.47;0.00;0.00;0.62;;;;;26.40;35.20;;;;;;2256238;61;4268;-71
2020/12/30 09:53:19;299215.00;1.00;516.57;0.00;0.00;0.62;;;;;26.50;35.10;;;;;;2253006;61;4322;-71
2020/12/30 09:55:51;384330.00;1.28;662.87;0.00;0.00;0.62;;;;;26.50;34.90;;;;;;2257456;61;4370;-71
2020/12/30 09:58:17;485931.00;1.62;837.61;28941.00;0.10;50.75;;;;;26.60;34.90;;;;;;2255351;61;4171;-71